Aegean Viii — SXKO — position and weather

sailwx.info

Track history (hours):
 
Tides and Currents Weather Stations Pressure Air Temp Water Temp Dewpoint Dewpoint Depression Visibility Wind Speed Wind Dir Waves Ship Positions

Aegean Viii

Last reported at 2016-Jun-30 19:07 UTC. Time now 2016-Jun-30 23:11 UTC.
Position N 38°15' E 021°44'.

Length 75 m; draft 5.8 m.

Type: Tanker. MMSI: 240732000.

Date/timePositionNaut miles runAvg speedWind from/ knotsBaromVisibWave heightAir tempDewpointWater temp
2016-Jun-30 19:07N 38°15' E 021°44'0 0.0
2016-Jun-30 18:31N 38°15' E 021°44'0 0.0
2016-Jun-30 16:32N 38°15' E 021°44'0 0.0
2016-Jun-30 15:33N 38°15' E 021°44'2 0.6
2016-Jun-30 12:33N 38°14' E 021°43'25 3.0
2016-Jun-30 04:10N 38°15' E 022°15'12 7.7
2016-Jun-30 02:33N 38°11' E 022°30'29 7.3
2016-Jun-29 22:32N 37°55' E 023°01'8 7.8
2016-Jun-29 21:33N 37°55' E 023°11'9 9.5
2016-Jun-29 20:33N 37°57' E 023°22'8 7.7
2016-Jun-29 19:34N 38°01' E 023°30'2 1.6
2016-Jun-29 18:33N 38°02' E 023°32'0 0.0
2016-Jun-29 17:33N 38°02' E 023°32'0 0.0
2016-Jun-29 16:33N 38°02' E 023°32'0 0.0
2016-Jun-29 15:33N 38°02' E 023°32'0 0.0
2016-Jun-29 14:33N 38°02' E 023°32'0 0.0
2016-Jun-29 13:33N 38°02' E 023°32'0 0.0
2016-Jun-29 12:33N 38°02' E 023°32'0 0.0
2016-Jun-29 11:33N 38°02' E 023°32'0 0.0
2016-Jun-29 10:33N 38°02' E 023°32'1 1.0
2016-Jun-29 09:33N 38°02' E 023°31'0 0.0
2016-Jun-29 08:33N 38°02' E 023°31'0 0.0
2016-Jun-29 07:33N 38°02' E 023°31'0 0.0
2016-Jun-29 06:33N 38°02' E 023°31'0 0.0
2016-Jun-29 05:33N 38°02' E 023°31'0 0.0
2016-Jun-29 04:33N 38°02' E 023°31'0 0.0
2016-Jun-29 03:33N 38°02' E 023°31'0 0.0
2016-Jun-29 02:33N 38°02' E 023°31'0 0.0
2016-Jun-29 01:30N 38°02' E 023°31'2 2.3
2016-Jun-29 00:33N 38°02' E 023°34'2 1.7
2016-Jun-28 23:33N 38°02' E 023°36'0 0.0
2016-Jun-28 22:33N 38°02' E 023°36'0 0.0
2016-Jun-28 21:33N 38°02' E 023°36'0 0.0
2016-Jun-28 20:33N 38°02' E 023°36'0 0.0
2016-Jun-28 19:34N 38°02' E 023°36'0 0.0
2016-Jun-28 18:33N 38°02' E 023°36'0 0.0
2016-Jun-28 17:33N 38°02' E 023°36'0 0.0
2016-Jun-28 16:33N 38°02' E 023°36'0 0.0
2016-Jun-28 15:33N 38°02' E 023°36'0 0.0
2016-Jun-28 14:33N 38°02' E 023°36'0 0.0
2016-Jun-28 13:33N 38°02' E 023°36'0 0.0
2016-Jun-28 12:34N 38°02' E 023°36'3 2.9
2016-Jun-28 11:33N 38°02' E 023°32'0 0.1
2016-Jun-28 10:33N 38°02' E 023°32'0 0.0
2016-Jun-28 09:33N 38°02' E 023°32'0 0.0
2016-Jun-28 08:34N 38°02' E 023°32'0 0.0
2016-Jun-28 07:33N 38°02' E 023°32'0 0.0
2016-Jun-27 13:33N 38°02' E 023°32'0 0.0
2016-Jun-27 12:33N 38°02' E 023°32'0 0.0
2016-Jun-27 11:34N 38°02' E 023°32'0 0.0
2016-Jun-27 10:33N 38°02' E 023°32'0 0.0
2016-Jun-27 09:33N 38°02' E 023°32'0 0.0
2016-Jun-27 08:33N 38°02' E 023°32'0 0.0
2016-Jun-27 07:34N 38°02' E 023°32'0 0.0
2016-Jun-27 06:33N 38°02' E 023°32'0 0.0
2016-Jun-27 05:33N 38°02' E 023°32'0 0.0
2016-Jun-27 04:33N 38°02' E 023°32'0 0.0
2016-Jun-27 03:33N 38°02' E 023°32'0 0.0
2016-Jun-26 01:33N 38°02' E 023°32'0 0.0
2016-Jun-26 00:33N 38°02' E 023°32'6 6.2
2016-Jun-25 23:33N 37°59' E 023°25'8 8.1
2016-Jun-25 22:33N 37°56' E 023°16'10 9.9
2016-Jun-25 21:33N 37°54' E 023°03'16 7.7
2016-Jun-25 19:26N 38°03' E 022°46'1011.1
2016-Jun-25 18:31N 38°07' E 022°34'1110.4
2016-Jun-25 17:27N 38°13' E 022°22'30 0.7
2016-Jun-23 23:18N 38°15' E 021°44'0 0.0
2016-Jun-23 22:32N 38°15' E 021°44'0 0.0
2016-Jun-22 21:06N 38°15' E 021°44'0 0.0
2016-Jun-22 20:31N 38°15' E 021°44'0 0.0
2016-Jun-21 23:28N 38°15' E 021°44'0 0.0
2016-Jun-21 22:33N 38°15' E 021°44'0 0.0
2016-Jun-21 21:15N 38°15' E 021°44'0 0.0
2016-Jun-21 20:33N 38°15' E 021°44'0 0.0
2016-Jun-21 17:28N 38°15' E 021°44'0 0.0
2016-Jun-21 16:33N 38°15' E 021°44'0 0.0
2016-Jun-21 15:32N 38°15' E 021°44'0 0.0
2016-Jun-21 11:07N 38°15' E 021°44'0 0.0
2016-Jun-20 23:17N 38°15' E 021°44'0 0.0
2016-Jun-20 21:33N 38°15' E 021°44'0 0.0
2016-Jun-20 20:33N 38°15' E 021°44'  
Track history (hours):
 
Tides and Currents Weather Stations Pressure Air Temp Water Temp Dewpoint Dewpoint Depression Visibility Wind Speed Wind Dir Waves Ship Positions

Aegean Viii

Last reported at 2016-Jun-30 19:07 UTC. Time now 2016-Jun-30 23:11 UTC.
Position N 38°15' E 021°44'.

Length 75 m; draft 5.8 m.

Type: Tanker. MMSI: 240732000.

Date/timePositionNaut miles runAvg speedWind from/ knotsBaromVisibWave heightAir tempDewpointWater temp
2016-Jun-30 19:07N 38°15' E 021°44'0 0.0
2016-Jun-30 18:31N 38°15' E 021°44'0 0.0
2016-Jun-30 16:32N 38°15' E 021°44'0 0.0
2016-Jun-30 15:33N 38°15' E 021°44'2 0.6
2016-Jun-30 12:33N 38°14' E 021°43'25 3.0
2016-Jun-30 04:10N 38°15' E 022°15'12 7.7
2016-Jun-30 02:33N 38°11' E 022°30'29 7.3
2016-Jun-29 22:32N 37°55' E 023°01'8 7.8
2016-Jun-29 21:33N 37°55' E 023°11'9 9.5
2016-Jun-29 20:33N 37°57' E 023°22'8 7.7
2016-Jun-29 19:34N 38°01' E 023°30'2 1.6
2016-Jun-29 18:33N 38°02' E 023°32'0 0.0
2016-Jun-29 17:33N 38°02' E 023°32'0 0.0
2016-Jun-29 16:33N 38°02' E 023°32'0 0.0
2016-Jun-29 15:33N 38°02' E 023°32'0 0.0
2016-Jun-29 14:33N 38°02' E 023°32'0 0.0
2016-Jun-29 13:33N 38°02' E 023°32'0 0.0
2016-Jun-29 12:33N 38°02' E 023°32'0 0.0
2016-Jun-29 11:33N 38°02' E 023°32'0 0.0
2016-Jun-29 10:33N 38°02' E 023°32'1 1.0
2016-Jun-29 09:33N 38°02' E 023°31'0 0.0
2016-Jun-29 08:33N 38°02' E 023°31'0 0.0
2016-Jun-29 07:33N 38°02' E 023°31'0 0.0
2016-Jun-29 06:33N 38°02' E 023°31'0 0.0
2016-Jun-29 05:33N 38°02' E 023°31'0 0.0
2016-Jun-29 04:33N 38°02' E 023°31'0 0.0
2016-Jun-29 03:33N 38°02' E 023°31'0 0.0
2016-Jun-29 02:33N 38°02' E 023°31'0 0.0
2016-Jun-29 01:30N 38°02' E 023°31'2 2.3
2016-Jun-29 00:33N 38°02' E 023°34'2 1.7
2016-Jun-28 23:33N 38°02' E 023°36'0 0.0
2016-Jun-28 22:33N 38°02' E 023°36'0 0.0
2016-Jun-28 21:33N 38°02' E 023°36'0 0.0
2016-Jun-28 20:33N 38°02' E 023°36'0 0.0
2016-Jun-28 19:34N 38°02' E 023°36'0 0.0
2016-Jun-28 18:33N 38°02' E 023°36'0 0.0
2016-Jun-28 17:33N 38°02' E 023°36'0 0.0
2016-Jun-28 16:33N 38°02' E 023°36'0 0.0
2016-Jun-28 15:33N 38°02' E 023°36'0 0.0
2016-Jun-28 14:33N 38°02' E 023°36'0 0.0
2016-Jun-28 13:33N 38°02' E 023°36'0 0.0
2016-Jun-28 12:34N 38°02' E 023°36'3 2.9
2016-Jun-28 11:33N 38°02' E 023°32'0 0.1
2016-Jun-28 10:33N 38°02' E 023°32'0 0.0
2016-Jun-28 09:33N 38°02' E 023°32'0 0.0
2016-Jun-28 08:34N 38°02' E 023°32'0 0.0
2016-Jun-28 07:33N 38°02' E 023°32'0 0.0
2016-Jun-27 13:33N 38°02' E 023°32'0 0.0
2016-Jun-27 12:33N 38°02' E 023°32'0 0.0
2016-Jun-27 11:34N 38°02' E 023°32'0 0.0
2016-Jun-27 10:33N 38°02' E 023°32'0 0.0
2016-Jun-27 09:33N 38°02' E 023°32'0 0.0
2016-Jun-27 08:33N 38°02' E 023°32'0 0.0
2016-Jun-27 07:34N 38°02' E 023°32'0 0.0
2016-Jun-27 06:33N 38°02' E 023°32'0 0.0
2016-Jun-27 05:33N 38°02' E 023°32'0 0.0
2016-Jun-27 04:33N 38°02' E 023°32'0 0.0
2016-Jun-27 03:33N 38°02' E 023°32'0 0.0
2016-Jun-26 01:33N 38°02' E 023°32'0 0.0
2016-Jun-26 00:33N 38°02' E 023°32'6 6.2
2016-Jun-25 23:33N 37°59' E 023°25'8 8.1
2016-Jun-25 22:33N 37°56' E 023°16'10 9.9
2016-Jun-25 21:33N 37°54' E 023°03'16 7.7
2016-Jun-25 19:26N 38°03' E 022°46'1011.1
2016-Jun-25 18:31N 38°07' E 022°34'1110.4
2016-Jun-25 17:27N 38°13' E 022°22'30 0.7
2016-Jun-23 23:18N 38°15' E 021°44'0 0.0
2016-Jun-23 22:32N 38°15' E 021°44'0 0.0
2016-Jun-22 21:06N 38°15' E 021°44'0 0.0
2016-Jun-22 20:31N 38°15' E 021°44'0 0.0
2016-Jun-21 23:28N 38°15' E 021°44'0 0.0
2016-Jun-21 22:33N 38°15' E 021°44'0 0.0
2016-Jun-21 21:15N 38°15' E 021°44'0 0.0
2016-Jun-21 20:33N 38°15' E 021°44'0 0.0
2016-Jun-21 17:28N 38°15' E 021°44'0 0.0
2016-Jun-21 16:33N 38°15' E 021°44'0 0.0
2016-Jun-21 15:32N 38°15' E 021°44'0 0.0
2016-Jun-21 11:07N 38°15' E 021°44'0 0.0
2016-Jun-20 23:17N 38°15' E 021°44'0 0.0
2016-Jun-20 21:33N 38°15' E 021°44'0 0.0
2016-Jun-20 20:33N 38°15' E 021°44'  

Dump ship's entire track history